Time,TemperatureF,DewpointF,PressureIn,WindDirection,WindDirectionDegrees,WindSpeedMPH,WindSpeedGustMPH,Humidity,HourlyPrecipIn,Conditions,Clouds,dailyrainin,SoftwareType,DateUTC
2013-11-08 00:02:00,41.0,32.0,30.10,NW,315,2.0,2.0,70,0.00,,,0.01,meteohub,2013-11-08 05:02:00,
2013-11-08 00:06:00,40.6,32.4,30.11,West,270,2.0,2.0,72,0.00,,,0.00,meteohub,2013-11-08 05:06:00,
2013-11-08 00:07:00,40.6,32.4,30.11,West,270,2.0,2.0,72,0.00,,,0.00,meteohub,2013-11-08 05:07:00,
2013-11-08 00:12:00,40.1,31.5,30.11,West,270,1.0,2.0,71,0.00,,,0.00,meteohub,2013-11-08 05:12:00,
2013-11-08 00:17:00,39.9,31.6,30.11,West,270,2.0,2.0,72,0.00,,,0.00,meteohub,2013-11-08 05:17:00,
2013-11-08 00:18:00,39.7,31.8,30.11,West,270,2.0,2.0,73,0.00,,,0.00,meteohub,2013-11-08 05:18:00,
2013-11-08 00:24:00,39.7,32.2,30.11,West,270,1.0,2.0,74,0.00,,,0.00,meteohub,2013-11-08 05:24:00,
2013-11-08 00:27:00,39.6,32.0,30.11,West,270,2.0,2.0,74,0.00,,,0.00,meteohub,2013-11-08 05:27:00,
2013-11-08 00:33:00,39.2,32.4,30.11,West,270,2.0,2.0,76,0.00,,,0.00,meteohub,2013-11-08 05:33:00,
2013-11-08 00:40:00,38.7,31.8,30.12,West,270,2.0,2.0,76,0.00,,,0.00,meteohub,2013-11-08 05:40:00,
2013-11-08 00:46:00,38.5,31.8,30.12,West,270,1.0,2.0,77,0.00,,,0.00,meteohub,2013-11-08 05:46:00,
2013-11-08 00:52:00,37.9,31.5,30.12,West,270,2.0,2.0,77,0.00,,,0.00,meteohub,2013-11-08 05:52:00,
2013-11-08 00:57:00,37.6,31.6,30.12,West,270,2.0,2.0,79,0.00,,,0.00,meteohub,2013-11-08 05:57:00,
2013-11-08 01:02:00,37.4,31.5,30.12,West,270,1.0,2.0,79,0.00,,,0.00,meteohub,2013-11-08 06:02:00,
2013-11-08 01:07:00,37.0,31.1,30.12,West,270,1.0,2.0,79,0.00,,,0.00,meteohub,2013-11-08 06:07:00,
2013-11-08 01:12:00,36.9,31.3,30.12,West,270,1.0,2.0,80,0.00,,,0.00,meteohub,2013-11-08 06:12:00,
2013-11-08 01:17:00,36.7,31.5,30.12,West,270,2.0,2.0,81,0.00,,,0.00,meteohub,2013-11-08 06:17:00,
2013-11-08 01:22:00,36.5,31.3,30.12,West,270,2.0,2.0,81,0.00,,,0.00,meteohub,2013-11-08 06:22:00,
2013-11-08 01:27:00,36.3,31.3,30.12,West,270,1.0,2.0,82,0.00,,,0.00,meteohub,2013-11-08 06:27:00,
2013-11-08 01:32:00,35.8,30.7,30.13,West,270,1.0,2.0,82,0.00,,,0.00,meteohub,2013-11-08 06:32:00,
2013-11-08 01:37:00,36.0,31.3,30.13,West,270,2.0,2.0,83,0.00,,,0.00,meteohub,2013-11-08 06:37:00,
2013-11-08 01:43:00,36.7,32.4,30.14,North,0,3.0,3.0,84,0.00,,,0.00,meteohub,2013-11-08 06:43:00,
2013-11-08 01:49:00,37.2,32.2,30.14,NNW,338,5.0,8.0,82,0.00,,,0.00,meteohub,2013-11-08 06:49:00,
2013-11-08 01:55:00,39.0,33.4,30.14,NW,315,4.0,8.0,80,0.00,,,0.00,meteohub,2013-11-08 06:55:00,
2013-11-08 02:01:00,39.7,33.4,30.14,NW,315,3.0,7.0,78,0.00,,,0.00,meteohub,2013-11-08 07:01:00,
2013-11-08 02:07:00,41.2,33.4,30.15,NW,315,2.0,7.0,74,0.00,,,0.00,meteohub,2013-11-08 07:07:00,
2013-11-08 02:13:00,42.1,33.4,30.15,NW,315,2.0,7.0,71,0.00,,,0.00,meteohub,2013-11-08 07:13:00,
2013-11-08 02:19:00,42.3,32.9,30.15,North,0,2.0,5.0,69,0.00,,,0.00,meteohub,2013-11-08 07:19:00,
2013-11-08 02:25:00,42.3,32.2,30.15,North,0,2.0,5.0,67,0.00,,,0.00,meteohub,2013-11-08 07:25:00,
2013-11-08 02:31:00,41.9,31.8,30.15,NW,315,3.0,5.0,67,0.00,,,0.00,meteohub,2013-11-08 07:31:00,
2013-11-08 02:37:00,41.7,31.6,30.16,NW,315,2.0,4.0,67,0.00,,,0.00,meteohub,2013-11-08 07:37:00,
2013-11-08 02:43:00,42.1,30.7,30.16,NNW,338,7.0,7.0,64,0.00,,,0.00,meteohub,2013-11-08 07:43:00,
2013-11-08 02:49:00,42.4,30.7,30.17,North,0,3.0,8.0,63,0.00,,,0.00,meteohub,2013-11-08 07:49:00,
2013-11-08 02:55:00,42.8,29.8,30.16,NE,45,4.0,8.0,60,0.00,,,0.00,meteohub,2013-11-08 07:55:00,
2013-11-08 03:01:00,42.8,29.8,30.17,NNW,338,4.0,8.0,60,0.00,,,0.00,meteohub,2013-11-08 08:01:00,
2013-11-08 03:07:00,43.2,28.9,30.17,West,270,3.0,8.0,57,0.00,,,0.00,meteohub,2013-11-08 08:07:00,
2013-11-08 03:12:00,43.2,28.6,30.17,NW,315,6.0,9.0,56,0.00,,,0.00,meteohub,2013-11-08 08:12:00,
2013-11-08 03:17:00,43.3,28.2,30.17,South,180,7.0,9.0,55,0.00,,,0.00,meteohub,2013-11-08 08:17:00,
2013-11-08 03:22:00,43.3,28.2,30.17,North,0,4.0,8.0,55,0.00,,,0.00,meteohub,2013-11-08 08:22:00,
2013-11-08 03:27:00,43.0,27.9,30.17,NW,315,2.0,8.0,55,0.00,,,0.00,meteohub,2013-11-08 08:27:00,
2013-11-08 03:32:00,43.2,28.0,30.17,North,0,4.0,7.0,55,0.00,,,0.00,meteohub,2013-11-08 08:32:00,
2013-11-08 03:37:00,44.8,29.1,30.18,North,0,4.0,6.0,54,0.00,,,0.00,meteohub,2013-11-08 08:37:00,
2013-11-08 03:44:00,42.8,27.7,30.18,North,0,3.0,6.0,55,0.00,,,0.00,meteohub,2013-11-08 08:44:00,
2013-11-08 03:50:00,42.4,27.5,30.18,North,0,2.0,4.0,55,0.00,,,0.00,meteohub,2013-11-08 08:50:00,
2013-11-08 03:56:00,41.9,27.0,30.19,North,0,3.0,4.0,55,0.00,,,0.00,meteohub,2013-11-08 08:56:00,
2013-11-08 04:05:00,41.4,27.7,30.19,NNE,23,2.0,3.0,58,0.00,,,0.00,meteohub,2013-11-08 09:05:00,
2013-11-08 04:11:00,40.1,28.0,30.19,NNE,23,1.0,3.0,62,0.00,,,0.00,meteohub,2013-11-08 09:11:00,
2013-11-08 04:17:00,39.0,28.2,30.19,NNE,23,1.0,2.0,65,0.00,,,0.00,meteohub,2013-11-08 09:17:00,
2013-11-08 04:22:00,38.8,28.0,30.19,NNE,23,1.0,2.0,65,0.00,,,0.00,meteohub,2013-11-08 09:22:00,
2013-11-08 04:27:00,37.4,27.9,30.19,NNE,23,2.0,2.0,68,0.00,,,0.00,meteohub,2013-11-08 09:27:00,
2013-11-08 04:32:00,37.0,27.9,30.19,NW,315,4.0,4.0,69,0.00,,,0.00,meteohub,2013-11-08 09:32:00,
2013-11-08 04:37:00,37.2,28.4,30.20,West,270,2.0,4.0,70,0.00,,,0.00,meteohub,2013-11-08 09:37:00,
2013-11-08 04:42:00,36.9,28.4,30.19,West,270,2.0,4.0,71,0.00,,,0.00,meteohub,2013-11-08 09:42:00,
2013-11-08 04:47:00,36.5,28.4,30.19,West,270,2.0,4.0,72,0.00,,,0.00,meteohub,2013-11-08 09:47:00,
2013-11-08 04:52:00,36.1,28.4,30.20,West,270,2.0,2.0,73,0.00,,,0.00,meteohub,2013-11-08 09:52:00,
2013-11-08 04:57:00,36.0,28.8,30.20,West,270,2.0,2.0,75,0.00,,,0.00,meteohub,2013-11-08 09:57:00,
2013-11-08 05:02:00,35.4,28.6,30.20,West,270,2.0,2.0,76,0.00,,,0.00,meteohub,2013-11-08 10:02:00,
2013-11-08 05:07:00,35.1,28.2,30.20,West,270,1.0,2.0,76,0.00,,,0.00,meteohub,2013-11-08 10:07:00,
2013-11-08 05:12:00,35.1,28.6,30.20,West,270,1.0,2.0,77,0.00,,,0.00,meteohub,2013-11-08 10:12:00,
2013-11-08 05:17:00,35.1,28.6,30.21,West,270,1.0,2.0,77,0.00,,,0.00,meteohub,2013-11-08 10:17:00,
2013-11-08 05:22:00,34.9,29.1,30.21,West,270,2.0,2.0,79,0.00,,,0.00,meteohub,2013-11-08 10:22:00,
2013-11-08 05:27:00,34.3,28.6,30.21,West,270,1.0,2.0,79,0.00,,,0.00,meteohub,2013-11-08 10:27:00,
2013-11-08 05:32:00,33.8,28.0,30.21,West,270,2.0,2.0,79,0.00,,,0.00,meteohub,2013-11-08 10:32:00,
2013-11-08 05:37:00,33.6,28.0,30.21,West,270,1.0,2.0,80,0.00,,,0.00,meteohub,2013-11-08 10:37:00,
2013-11-08 05:42:00,33.1,27.9,30.21,West,270,2.0,2.0,81,0.00,,,0.00,meteohub,2013-11-08 10:42:00,
2013-11-08 05:47:00,32.9,27.7,30.21,West,270,1.0,2.0,81,0.00,,,0.00,meteohub,2013-11-08 10:47:00,
2013-11-08 05:52:00,32.5,27.7,30.21,West,270,2.0,2.0,82,0.00,,,0.00,meteohub,2013-11-08 10:52:00,
2013-11-08 05:57:00,32.4,27.5,30.22,West,270,1.0,2.0,82,0.00,,,0.00,meteohub,2013-11-08 10:57:00,
2013-11-08 06:02:00,32.2,27.7,30.22,West,270,2.0,2.0,83,0.00,,,0.00,meteohub,2013-11-08 11:02:00,
2013-11-08 06:07:00,32.0,27.7,30.22,West,270,2.0,2.0,84,0.00,,,0.00,meteohub,2013-11-08 11:07:00,
2013-11-08 06:12:00,31.8,27.5,30.22,West,270,1.0,2.0,84,0.00,,,0.00,meteohub,2013-11-08 11:12:00,
2013-11-08 06:17:00,31.6,27.3,30.22,West,270,1.0,2.0,84,0.00,,,0.00,meteohub,2013-11-08 11:17:00,
2013-11-08 06:22:00,31.5,27.5,30.22,West,270,1.0,2.0,85,0.00,,,0.00,meteohub,2013-11-08 11:22:00,
2013-11-08 06:27:00,31.3,27.3,30.22,West,270,1.0,1.0,85,0.00,,,0.00,meteohub,2013-11-08 11:27:00,
2013-11-08 06:32:00,31.1,27.1,30.22,West,270,1.0,1.0,85,0.00,,,0.00,meteohub,2013-11-08 11:32:00,
2013-11-08 06:37:00,30.9,27.0,30.22,West,270,1.0,1.0,85,0.00,,,0.00,meteohub,2013-11-08 11:37:00,
2013-11-08 06:42:00,30.7,27.1,30.22,West,270,1.0,1.0,86,0.00,,,0.00,meteohub,2013-11-08 11:42:00,
2013-11-08 06:47:00,30.6,27.0,30.23,West,270,1.0,1.0,86,0.00,,,0.00,meteohub,2013-11-08 11:47:00,
2013-11-08 06:52:00,30.4,26.8,30.22,West,270,1.0,1.0,86,0.00,,,0.00,meteohub,2013-11-08 11:52:00,
2013-11-08 06:57:00,30.2,26.8,30.23,West,270,1.0,1.0,87,0.00,,,0.00,meteohub,2013-11-08 11:57:00,
2013-11-08 07:02:00,30.2,26.8,30.23,West,270,0.0,1.0,87,0.00,,,0.00,meteohub,2013-11-08 12:02:00,
2013-11-08 07:07:00,30.2,26.8,30.23,West,270,0.0,1.0,87,0.00,,,0.00,meteohub,2013-11-08 12:07:00,
2013-11-08 07:12:00,30.2,26.8,30.23,West,270,1.0,1.0,87,0.00,,,0.00,meteohub,2013-11-08 12:12:00,
2013-11-08 07:17:00,30.2,27.1,30.23,West,270,0.0,1.0,88,0.00,,,0.00,meteohub,2013-11-08 12:17:00,
2013-11-08 07:22:00,30.2,27.1,30.24,West,270,0.0,1.0,88,0.00,,,0.00,meteohub,2013-11-08 12:22:00,
2013-11-08 07:27:00,30.2,27.1,30.24,West,270,0.0,1.0,88,0.00,,,0.00,meteohub,2013-11-08 12:27:00,
2013-11-08 07:32:00,30.4,27.3,30.24,West,270,0.0,0.0,88,0.00,,,0.00,meteohub,2013-11-08 12:32:00,
2013-11-08 07:37:00,30.4,27.3,30.25,West,270,0.0,0.0,88,0.00,,,0.00,meteohub,2013-11-08 12:37:00,
2013-11-08 07:42:00,30.7,27.9,30.25,West,270,0.0,0.0,89,0.00,,,0.00,meteohub,2013-11-08 12:42:00,
2013-11-08 07:47:00,30.9,28.0,30.25,West,270,0.0,0.0,89,0.00,,,0.00,meteohub,2013-11-08 12:47:00,
2013-11-08 07:52:00,31.1,28.6,30.25,West,270,1.0,0.0,90,0.00,,,0.00,meteohub,2013-11-08 12:52:00,
2013-11-08 07:57:00,31.6,29.1,30.25,West,270,1.0,1.0,90,0.00,,,0.00,meteohub,2013-11-08 12:57:00,
2013-11-08 08:02:00,32.2,29.7,30.26,West,270,0.0,1.0,90,0.00,,,0.00,meteohub,2013-11-08 13:02:00,
2013-11-08 08:07:00,32.7,30.4,30.25,West,270,0.0,1.0,91,0.00,,,0.00,meteohub,2013-11-08 13:07:00,
2013-11-08 08:12:00,33.4,31.1,30.26,West,270,1.0,1.0,91,0.00,,,0.00,meteohub,2013-11-08 13:12:00,
2013-11-08 08:17:00,34.0,31.6,30.26,West,270,1.0,1.0,91,0.00,,,0.00,meteohub,2013-11-08 13:17:00,
2013-11-08 08:22:00,35.1,32.7,30.26,West,270,1.0,1.0,91,0.00,,,0.00,meteohub,2013-11-08 13:22:00,
2013-11-08 08:27:00,35.8,33.1,30.26,West,270,1.0,2.0,90,0.00,,,0.00,meteohub,2013-11-08 13:27:00,
2013-11-08 08:32:00,36.9,34.0,30.26,West,270,2.0,2.0,89,0.00,,,0.00,meteohub,2013-11-08 13:32:00,
2013-11-08 08:37:00,37.9,34.3,30.26,West,270,2.0,2.0,87,0.00,,,0.00,meteohub,2013-11-08 13:37:00,
2013-11-08 08:42:00,39.0,34.9,30.27,West,270,0.0,2.0,85,0.00,,,0.00,meteohub,2013-11-08 13:42:00,
2013-11-08 08:47:00,39.9,35.8,30.26,West,270,2.0,2.0,85,0.00,,,0.00,meteohub,2013-11-08 13:47:00,
2013-11-08 08:52:00,41.5,34.5,30.26,SW,225,6.0,6.0,76,0.00,,,0.00,meteohub,2013-11-08 13:52:00,
2013-11-08 08:57:00,43.5,34.7,30.26,North,0,3.0,6.0,71,0.00,,,0.00,meteohub,2013-11-08 13:57:00,
2013-11-08 09:02:00,45.0,33.4,30.27,South,180,2.0,6.0,64,0.00,,,0.00,meteohub,2013-11-08 14:02:00,
2013-11-08 09:07:00,46.2,33.1,30.26,SW,225,4.0,6.0,60,0.00,,,0.00,meteohub,2013-11-08 14:07:00,
2013-11-08 09:12:00,46.9,31.1,30.26,East,90,3.0,5.0,54,0.00,,,0.00,meteohub,2013-11-08 14:12:00,
2013-11-08 09:17:00,47.5,32.2,30.27,NE,45,2.0,5.0,55,0.00,,,0.00,meteohub,2013-11-08 14:17:00,
2013-11-08 09:22:00,48.2,31.5,30.27,South,180,3.0,4.0,52,0.00,,,0.00,meteohub,2013-11-08 14:22:00,
2013-11-08 09:27:00,48.6,30.7,30.27,NE,45,5.0,5.0,50,0.00,,,0.00,meteohub,2013-11-08 14:27:00,
2013-11-08 09:32:00,48.6,29.3,30.27,North,0,3.0,6.0,47,0.00,,,0.00,meteohub,2013-11-08 14:32:00,
2013-11-08 09:37:00,49.5,30.0,30.27,West,270,4.0,6.0,47,0.00,,,0.00,meteohub,2013-11-08 14:37:00,
2013-11-08 09:42:00,50.2,28.6,30.27,North,0,2.0,6.0,43,0.00,,,0.00,meteohub,2013-11-08 14:42:00,
2013-11-08 09:47:00,50.5,29.5,30.27,NE,45,4.0,5.0,44,0.00,,,0.00,meteohub,2013-11-08 14:47:00,
2013-11-08 09:52:00,51.1,28.2,30.27,North,0,2.0,5.0,41,0.00,,,0.00,meteohub,2013-11-08 14:52:00,
2013-11-08 09:57:00,51.6,27.5,30.27,SW,225,2.0,7.0,39,0.00,,,0.00,meteohub,2013-11-08 14:57:00,
2013-11-08 10:02:00,52.0,27.9,30.27,NW,315,7.0,7.0,39,0.00,,,0.00,meteohub,2013-11-08 15:02:00,
2013-11-08 10:07:00,52.0,27.1,30.26,NW,315,4.0,7.0,38,0.00,,,0.00,meteohub,2013-11-08 15:07:00,
2013-11-08 10:12:00,52.0,26.6,30.26,North,0,3.0,8.0,37,0.00,,,0.00,meteohub,2013-11-08 15:12:00,
2013-11-08 10:17:00,52.5,27.0,30.26,North,0,8.0,8.0,37,0.00,,,0.00,meteohub,2013-11-08 15:17:00,
2013-11-08 10:22:00,52.5,25.0,30.26,SW,225,11.0,11.0,34,0.00,,,0.00,meteohub,2013-11-08 15:22:00,
2013-11-08 10:27:00,52.9,25.3,30.26,North,0,5.0,11.0,34,0.00,,,0.00,meteohub,2013-11-08 15:27:00,
2013-11-08 10:32:00,52.9,24.6,30.26,SW,225,8.0,11.0,33,0.00,,,0.00,meteohub,2013-11-08 15:32:00,
2013-11-08 10:37:00,53.4,25.7,30.26,NW,315,4.0,11.0,34,0.00,,,0.00,meteohub,2013-11-08 15:37:00,
2013-11-08 10:42:00,54.1,25.7,30.26,NW,315,8.0,8.0,33,0.00,,,0.00,meteohub,2013-11-08 15:42:00,
2013-11-08 10:47:00,54.1,25.7,30.26,NE,45,3.0,9.0,33,0.00,,,0.00,meteohub,2013-11-08 15:47:00,
2013-11-08 10:52:00,54.1,25.7,30.26,West,270,2.0,9.0,33,0.00,,,0.00,meteohub,2013-11-08 15:52:00,
2013-11-08 10:57:00,54.3,26.6,30.26,North,0,4.0,9.0,34,0.00,,,0.00,meteohub,2013-11-08 15:57:00,
2013-11-08 11:02:00,54.5,24.4,30.26,East,90,5.0,8.0,31,0.00,,,0.00,meteohub,2013-11-08 16:02:00,
2013-11-08 11:07:00,54.5,24.4,30.26,WNW,293,3.0,8.0,31,0.00,,,0.00,meteohub,2013-11-08 16:07:00,
2013-11-08 11:12:00,54.7,23.9,30.26,North,0,6.0,7.0,30,0.00,,,0.00,meteohub,2013-11-08 16:12:00,
2013-11-08 11:17:00,54.9,24.8,30.26,North,0,3.0,8.0,31,0.00,,,0.00,meteohub,2013-11-08 16:17:00,
2013-11-08 11:22:00,54.7,22.3,30.26,NW,315,11.0,11.0,28,0.00,,,0.00,meteohub,2013-11-08 16:22:00,
2013-11-08 11:27:00,54.9,23.2,30.25,SW,225,4.0,11.0,29,0.00,,,0.00,meteohub,2013-11-08 16:27:00,
2013-11-08 11:32:00,55.4,25.3,30.25,West,270,4.0,11.0,31,0.00,,,0.00,meteohub,2013-11-08 16:32:00,
2013-11-08 11:37:00,55.4,23.7,30.25,NE,45,8.0,11.0,29,0.00,,,0.00,meteohub,2013-11-08 16:37:00,
2013-11-08 11:42:00,55.4,22.8,30.25,SW,225,4.0,11.0,28,0.00,,,0.00,meteohub,2013-11-08 16:42:00,
2013-11-08 11:47:00,55.4,22.8,30.24,NW,315,4.0,11.0,28,0.00,,,0.00,meteohub,2013-11-08 16:47:00,
2013-11-08 11:52:00,56.3,23.5,30.25,SW,225,6.0,11.0,28,0.00,,,0.00,meteohub,2013-11-08 16:52:00,
2013-11-08 11:57:00,56.3,24.4,30.24,NNW,338,4.0,11.0,29,0.00,,,0.00,meteohub,2013-11-08 16:57:00,
2013-11-08 12:02:00,55.9,22.5,30.24,NW,315,8.0,10.0,27,0.00,,,0.00,meteohub,2013-11-08 17:02:00,
2013-11-08 12:07:00,55.9,23.4,30.24,South,180,4.0,13.0,28,0.00,,,0.00,meteohub,2013-11-08 17:07:00,
2013-11-08 12:12:00,55.9,22.5,30.23,SW,225,4.0,13.0,27,0.00,,,0.00,meteohub,2013-11-08 17:12:00,
2013-11-08 12:17:00,55.9,24.1,30.23,SW,225,4.0,8.0,29,0.00,,,0.00,meteohub,2013-11-08 17:17:00,
2013-11-08 12:22:00,56.1,21.7,30.23,NW,315,7.0,11.0,26,0.00,,,0.00,meteohub,2013-11-08 17:22:00,
2013-11-08 12:27:00,55.8,22.3,30.23,North,0,4.0,11.0,27,0.00,,,0.00,meteohub,2013-11-08 17:27:00,
2013-11-08 12:32:00,56.3,22.8,30.23,South,180,4.0,11.0,27,0.00,,,0.00,meteohub,2013-11-08 17:32:00,
2013-11-08 12:37:00,57.0,22.5,30.23,NE,45,2.0,11.0,26,0.00,,,0.00,meteohub,2013-11-08 17:37:00,
2013-11-08 12:42:00,56.8,21.4,30.22,North,0,4.0,11.0,25,0.00,,,0.00,meteohub,2013-11-08 17:42:00,
2013-11-08 12:47:00,57.0,21.6,30.22,South,180,2.0,9.0,25,0.00,,,0.00,meteohub,2013-11-08 17:47:00,
2013-11-08 12:52:00,57.2,21.7,30.22,NW,315,6.0,9.0,25,0.00,,,0.00,meteohub,2013-11-08 17:52:00,
2013-11-08 12:57:00,57.2,21.7,30.23,NW,315,6.0,9.0,25,0.00,,,0.00,meteohub,2013-11-08 17:57:00,
2013-11-08 13:02:00,56.7,20.3,30.23,SE,135,3.0,8.0,24,0.00,,,0.00,meteohub,2013-11-08 18:02:00,
2013-11-08 13:07:00,56.7,21.2,30.22,North,0,5.0,8.0,25,0.00,,,0.00,meteohub,2013-11-08 18:07:00,
2013-11-08 13:12:00,56.8,21.4,30.22,SW,225,4.0,8.0,25,0.00,,,0.00,meteohub,2013-11-08 18:12:00,
2013-11-08 13:17:00,56.7,21.2,30.21,South,180,6.0,7.0,25,0.00,,,0.00,meteohub,2013-11-08 18:17:00,
2013-11-08 13:22:00,56.7,21.2,30.21,NE,45,4.0,7.0,25,0.00,,,0.00,meteohub,2013-11-08 18:22:00,
2013-11-08 13:27:00,57.0,20.5,30.21,East,90,8.0,9.0,24,0.00,,,0.00,meteohub,2013-11-08 18:27:00,
2013-11-08 13:32:00,57.6,21.0,30.22,NW,315,5.0,9.0,24,0.00,,,0.00,meteohub,2013-11-08 18:32:00,
2013-11-08 13:37:00,56.8,19.4,30.22,South,180,3.0,8.0,23,0.00,,,0.00,meteohub,2013-11-08 18:37:00,
2013-11-08 13:42:00,56.5,21.0,30.22,West,270,4.0,14.0,25,0.00,,,0.00,meteohub,2013-11-08 18:42:00,
2013-11-08 13:47:00,56.5,20.1,30.22,SW,225,8.0,14.0,24,0.00,,,0.00,meteohub,2013-11-08 18:47:00,
2013-11-08 13:52:00,55.9,19.6,30.21,North,0,5.0,10.0,24,0.00,,,0.00,meteohub,2013-11-08 18:52:00,
2013-11-08 13:57:00,55.6,21.2,30.21,North,0,8.0,10.0,26,0.00,,,0.00,meteohub,2013-11-08 18:57:00,
2013-11-08 14:02:00,55.6,21.2,30.21,South,180,3.0,10.0,26,0.00,,,0.00,meteohub,2013-11-08 19:02:00,
2013-11-08 14:07:00,55.2,19.0,30.22,SW,225,6.0,10.0,24,0.00,,,0.00,meteohub,2013-11-08 19:07:00,
2013-11-08 14:12:00,55.4,19.2,30.22,SW,225,7.0,10.0,24,0.00,,,0.00,meteohub,2013-11-08 19:12:00,
2013-11-08 14:17:00,55.4,19.2,30.22,South,180,6.0,8.0,24,0.00,,,0.00,meteohub,2013-11-08 19:17:00,
2013-11-08 14:22:00,55.0,18.9,30.21,North,0,8.0,8.0,24,0.00,,,0.00,meteohub,2013-11-08 19:22:00,
2013-11-08 14:27:00,55.0,19.8,30.21,NE,45,6.0,8.0,25,0.00,,,0.00,meteohub,2013-11-08 19:27:00,
2013-11-08 14:32:00,55.0,19.8,30.21,North,0,7.0,8.0,25,0.00,,,0.00,meteohub,2013-11-08 19:32:00,
2013-11-08 14:37:00,55.2,20.8,30.21,SW,225,2.0,8.0,26,0.00,,,0.00,meteohub,2013-11-08 19:37:00,
2013-11-08 14:42:00,55.2,20.8,30.21,SW,225,2.0,8.0,26,0.00,,,0.00,meteohub,2013-11-08 19:42:00,
2013-11-08 14:47:00,55.2,20.8,30.22,East,90,3.0,7.0,26,0.00,,,0.00,meteohub,2013-11-08 19:47:00,
2013-11-08 14:52:00,55.0,20.8,30.21,West,270,7.0,7.0,26,0.00,,,0.00,meteohub,2013-11-08 19:52:00,
2013-11-08 14:57:00,55.2,19.9,30.22,West,270,4.0,13.0,25,0.00,,,0.00,meteohub,2013-11-08 19:57:00,
2013-11-08 15:02:00,55.0,19.8,30.21,North,0,4.0,13.0,25,0.00,,,0.00,meteohub,2013-11-08 20:02:00,
2013-11-08 15:07:00,54.9,18.7,30.21,South,180,2.0,13.0,24,0.00,,,0.00,meteohub,2013-11-08 20:07:00,
2013-11-08 15:12:00,54.7,20.5,30.20,NE,45,4.0,8.0,26,0.00,,,0.00,meteohub,2013-11-08 20:12:00,
2013-11-08 15:17:00,54.7,20.5,30.21,NNW,338,4.0,8.0,26,0.00,,,0.00,meteohub,2013-11-08 20:17:00,
2013-11-08 15:22:00,54.5,20.3,30.22,North,0,5.0,8.0,26,0.00,,,0.00,meteohub,2013-11-08 20:22:00,
2013-11-08 15:27:00,54.5,19.4,30.22,West,270,4.0,8.0,25,0.00,,,0.00,meteohub,2013-11-08 20:27:00,
2013-11-08 15:32:00,54.1,19.0,30.22,NE,45,2.0,8.0,25,0.00,,,0.00,meteohub,2013-11-08 20:32:00,
2013-11-08 15:37:00,54.1,19.0,30.22,NW,315,4.0,8.0,25,0.00,,,0.00,meteohub,2013-11-08 20:37:00,
2013-11-08 15:42:00,54.1,19.9,30.22,NE,45,3.0,7.0,26,0.00,,,0.00,meteohub,2013-11-08 20:42:00,
2013-11-08 15:47:00,54.0,19.8,30.22,NW,315,5.0,7.0,26,0.00,,,0.00,meteohub,2013-11-08 20:47:00,
2013-11-08 15:52:00,53.8,20.7,30.22,West,270,4.0,7.0,27,0.00,,,0.00,meteohub,2013-11-08 20:52:00,
2013-11-08 15:57:00,53.6,20.5,30.22,NW,315,2.0,7.0,27,0.00,,,0.00,meteohub,2013-11-08 20:57:00,
2013-11-08 16:02:00,53.4,19.4,30.22,West,270,5.0,7.0,26,0.00,,,0.00,meteohub,2013-11-08 21:02:00,
2013-11-08 16:07:00,53.2,20.1,30.22,SW,225,4.0,7.0,27,0.00,,,0.00,meteohub,2013-11-08 21:07:00,
2013-11-08 16:12:00,53.1,19.9,30.22,West,270,4.0,7.0,27,0.00,,,0.00,meteohub,2013-11-08 21:12:00,
2013-11-08 16:17:00,52.9,20.7,30.22,North,0,2.0,7.0,28,0.00,,,0.00,meteohub,2013-11-08 21:17:00,
2013-11-08 16:22:00,52.7,20.5,30.23,NNE,23,4.0,7.0,28,0.00,,,0.00,meteohub,2013-11-08 21:22:00,
2013-11-08 16:27:00,52.5,21.2,30.23,North,0,4.0,6.0,29,0.00,,,0.00,meteohub,2013-11-08 21:27:00,
2013-11-08 16:32:00,52.5,21.2,30.23,NW,315,2.0,6.0,29,0.00,,,0.00,meteohub,2013-11-08 21:32:00,
2013-11-08 16:37:00,52.0,22.3,30.23,NW,315,0.0,6.0,31,0.00,,,0.00,meteohub,2013-11-08 21:37:00,
2013-11-08 16:42:00,51.4,22.6,30.23,NW,315,1.0,4.0,32,0.00,,,0.00,meteohub,2013-11-08 21:42:00,
2013-11-08 16:47:00,51.3,22.5,30.23,NW,315,2.0,4.0,32,0.00,,,0.00,meteohub,2013-11-08 21:47:00,
2013-11-08 16:52:00,50.9,23.5,30.24,NW,315,2.0,2.0,34,0.00,,,0.00,meteohub,2013-11-08 21:52:00,
2013-11-08 16:57:00,50.5,25.9,30.24,NW,315,2.0,2.0,38,0.00,,,0.00,meteohub,2013-11-08 21:57:00,
2013-11-08 17:02:00,50.0,26.6,30.24,NW,315,2.0,2.0,40,0.00,,,0.00,meteohub,2013-11-08 22:02:00,
2013-11-08 17:07:00,49.1,27.0,30.24,SW,225,2.0,3.0,42,0.00,,,0.00,meteohub,2013-11-08 22:07:00,
2013-11-08 17:12:00,48.2,27.9,30.24,SW,225,1.0,3.0,45,0.00,,,0.00,meteohub,2013-11-08 22:12:00,
2013-11-08 17:17:00,47.3,29.1,30.25,SW,225,2.0,2.0,49,0.00,,,0.00,meteohub,2013-11-08 22:17:00,
2013-11-08 17:22:00,45.9,29.7,30.25,SW,225,1.0,2.0,53,0.00,,,0.00,meteohub,2013-11-08 22:22:00,
2013-11-08 17:27:00,45.1,28.9,30.25,SW,225,1.0,2.0,53,0.00,,,0.00,meteohub,2013-11-08 22:27:00,
2013-11-08 17:32:00,44.6,29.8,30.24,SW,225,1.0,2.0,56,0.00,,,0.00,meteohub,2013-11-08 22:32:00,
2013-11-08 17:37:00,43.9,30.6,30.25,SW,225,2.0,2.0,59,0.00,,,0.00,meteohub,2013-11-08 22:37:00,
2013-11-08 17:42:00,43.0,30.0,30.25,SW,225,2.0,2.0,60,0.00,,,0.00,meteohub,2013-11-08 22:42:00,
2013-11-08 17:47:00,42.4,30.4,30.25,SW,225,2.0,2.0,62,0.00,,,0.00,meteohub,2013-11-08 22:47:00,
2013-11-08 17:52:00,41.7,29.7,30.25,SW,225,1.0,2.0,62,0.00,,,0.00,meteohub,2013-11-08 22:52:00,
2013-11-08 17:57:00,41.2,30.0,30.26,SW,225,2.0,2.0,64,0.00,,,0.00,meteohub,2013-11-08 22:57:00,
2013-11-08 18:02:00,40.6,29.5,30.27,SW,225,1.0,2.0,64,0.00,,,0.00,meteohub,2013-11-08 23:02:00,
2013-11-08 18:07:00,39.9,28.8,30.26,SW,225,0.0,2.0,64,0.00,,,0.00,meteohub,2013-11-08 23:07:00,
2013-11-08 18:12:00,39.6,28.4,30.26,SW,225,1.0,2.0,64,0.00,,,0.00,meteohub,2013-11-08 23:12:00,
2013-11-08 18:17:00,39.6,28.8,30.26,SW,225,0.0,2.0,65,0.00,,,0.00,meteohub,2013-11-08 23:17:00,
2013-11-08 18:22:00,38.8,29.1,30.26,SW,225,2.0,2.0,68,0.00,,,0.00,meteohub,2013-11-08 23:22:00,
2013-11-08 18:27:00,37.9,28.8,30.27,SW,225,1.0,2.0,69,0.00,,,0.00,meteohub,2013-11-08 23:27:00,
2013-11-08 18:32:00,37.6,28.4,30.27,SW,225,0.0,2.0,69,0.00,,,0.00,meteohub,2013-11-08 23:32:00,
2013-11-08 18:37:00,37.2,28.0,30.27,SW,225,2.0,2.0,69,0.00,,,0.00,meteohub,2013-11-08 23:37:00,
2013-11-08 18:42:00,37.8,28.6,30.26,SW,225,0.0,2.0,69,0.00,,,0.00,meteohub,2013-11-08 23:42:00,
2013-11-08 18:47:00,37.8,29.5,30.27,SW,225,2.0,2.0,72,0.00,,,0.00,meteohub,2013-11-08 23:47:00,
2013-11-08 18:52:00,36.9,28.8,30.28,SW,225,1.0,2.0,72,0.00,,,0.00,meteohub,2013-11-08 23:52:00,
2013-11-08 18:57:00,36.5,28.4,30.27,SW,225,2.0,2.0,72,0.00,,,0.00,meteohub,2013-11-08 23:57:00,
2013-11-08 19:02:00,36.7,28.8,30.27,NW,315,2.0,2.0,73,0.00,,,0.00,meteohub,2013-11-09 00:02:00,
2013-11-08 19:07:00,36.9,29.7,30.27,NW,315,2.0,2.0,75,0.00,,,0.00,meteohub,2013-11-09 00:07:00,
2013-11-08 19:12:00,36.7,29.5,30.28,NW,315,2.0,2.0,75,0.00,,,0.00,meteohub,2013-11-09 00:12:00,
2013-11-08 19:17:00,36.3,29.1,30.27,NW,315,0.0,2.0,75,0.00,,,0.00,meteohub,2013-11-09 00:17:00,
2013-11-08 19:22:00,36.1,28.6,30.27,NW,315,2.0,2.0,74,0.00,,,0.00,meteohub,2013-11-09 00:22:00,
2013-11-08 19:27:00,36.0,28.8,30.27,NW,315,2.0,2.0,75,0.00,,,0.00,meteohub,2013-11-09 00:27:00,
2013-11-08 19:32:00,36.0,29.5,30.27,NW,315,2.0,2.0,77,0.00,,,0.00,meteohub,2013-11-09 00:32:00,
2013-11-08 19:37:00,35.4,28.6,30.27,NW,315,0.0,2.0,76,0.00,,,0.00,meteohub,2013-11-09 00:37:00,
2013-11-08 19:42:00,35.1,28.2,30.27,NW,315,2.0,2.0,76,0.00,,,0.00,meteohub,2013-11-09 00:42:00,
2013-11-08 19:47:00,35.1,28.6,30.28,NW,315,2.0,2.0,77,0.00,,,0.00,meteohub,2013-11-09 00:47:00,
2013-11-08 19:52:00,34.9,29.1,30.28,NW,315,2.0,2.0,79,0.00,,,0.00,meteohub,2013-11-09 00:52:00,
2013-11-08 19:57:00,34.5,28.4,30.28,NW,315,0.0,2.0,78,0.00,,,0.00,meteohub,2013-11-09 00:57:00,
2013-11-08 20:02:00,34.3,28.2,30.27,NW,315,1.0,2.0,78,0.00,,,0.00,meteohub,2013-11-09 01:02:00,
2013-11-08 20:07:00,34.5,29.3,30.28,NW,315,2.0,2.0,81,0.00,,,0.00,meteohub,2013-11-09 01:07:00,
2013-11-08 20:12:00,34.2,28.6,30.28,NW,315,0.0,2.0,80,0.00,,,0.00,meteohub,2013-11-09 01:12:00,
2013-11-08 20:17:00,33.8,28.0,30.28,NW,315,2.0,2.0,79,0.00,,,0.00,meteohub,2013-11-09 01:17:00,
2013-11-08 20:22:00,33.8,28.6,30.29,NW,315,2.0,2.0,81,0.00,,,0.00,meteohub,2013-11-09 01:22:00,
2013-11-08 20:27:00,33.8,28.6,30.29,NW,315,0.0,2.0,81,0.00,,,0.00,meteohub,2013-11-09 01:27:00,
2013-11-08 20:32:00,33.4,27.9,30.29,NW,315,1.0,2.0,80,0.00,,,0.00,meteohub,2013-11-09 01:32:00,
2013-11-08 20:38:00,33.4,28.6,30.30,NW,315,2.0,2.0,82,0.00,,,0.00,meteohub,2013-11-09 01:38:00,
2013-11-08 20:44:00,33.1,28.2,30.30,NW,315,1.0,2.0,82,0.00,,,0.00,meteohub,2013-11-09 01:44:00,
2013-11-08 20:50:00,32.7,27.5,30.29,NW,315,1.0,2.0,81,0.00,,,0.00,meteohub,2013-11-09 01:50:00,
2013-11-08 20:56:00,32.5,28.0,30.30,NW,315,2.0,2.0,83,0.00,,,0.00,meteohub,2013-11-09 01:56:00,
2013-11-08 21:02:00,32.4,27.9,30.30,NW,315,0.0,2.0,83,0.00,,,0.00,meteohub,2013-11-09 02:02:00,
2013-11-08 21:07:00,32.0,27.5,30.30,NW,315,1.0,2.0,83,0.00,,,0.00,meteohub,2013-11-09 02:07:00,
2013-11-08 21:12:00,32.2,27.9,30.30,NW,315,2.0,2.0,84,0.00,,,0.00,meteohub,2013-11-09 02:12:00,
2013-11-08 21:17:00,32.2,27.9,30.30,NW,315,0.0,2.0,84,0.00,,,0.00,meteohub,2013-11-09 02:17:00,
2013-11-08 21:22:00,32.0,27.7,30.31,NW,315,1.0,2.0,84,0.00,,,0.00,meteohub,2013-11-09 02:22:00,
2013-11-08 21:27:00,31.8,27.5,30.30,NW,315,0.0,2.0,84,0.00,,,0.00,meteohub,2013-11-09 02:27:00,
2013-11-08 21:32:00,31.6,27.7,30.30,NW,315,1.0,1.0,85,0.00,,,0.00,meteohub,2013-11-09 02:32:00,
2013-11-08 21:37:00,31.6,27.7,30.31,NW,315,0.0,1.0,85,0.00,,,0.00,meteohub,2013-11-09 02:37:00,
2013-11-08 21:42:00,31.5,27.5,30.31,NW,315,0.0,1.0,85,0.00,,,0.00,meteohub,2013-11-09 02:42:00,
2013-11-08 21:48:00,31.5,27.7,30.30,NW,315,0.0,2.0,86,0.00,,,0.00,meteohub,2013-11-09 02:48:00,
2013-11-08 21:54:00,31.3,27.5,30.30,NW,315,0.0,2.0,86,0.00,,,0.00,meteohub,2013-11-09 02:54:00,
2013-11-08 22:00:00,31.1,27.7,30.31,NW,315,0.0,2.0,87,0.00,,,0.00,meteohub,2013-11-09 03:00:00,
2013-11-08 22:06:00,30.9,27.5,30.31,NW,315,2.0,2.0,87,0.00,,,0.00,meteohub,2013-11-09 03:06:00,
2013-11-08 22:12:00,30.9,27.5,30.31,NW,315,0.0,2.0,87,0.00,,,0.00,meteohub,2013-11-09 03:12:00,
2013-11-08 22:17:00,30.7,27.3,30.31,NW,315,1.0,2.0,87,0.00,,,0.00,meteohub,2013-11-09 03:17:00,
2013-11-08 22:22:00,30.7,27.3,30.31,NW,315,0.0,2.0,87,0.00,,,0.00,meteohub,2013-11-09 03:22:00,
2013-11-08 22:27:00,30.6,27.1,30.31,NW,315,0.0,2.0,87,0.00,,,0.00,meteohub,2013-11-09 03:27:00,
2013-11-08 22:32:00,30.4,27.3,30.32,NW,315,0.0,2.0,88,0.00,,,0.00,meteohub,2013-11-09 03:32:00,
2013-11-08 22:37:00,30.2,27.1,30.31,NW,315,0.0,1.0,88,0.00,,,0.00,meteohub,2013-11-09 03:37:00,
2013-11-08 22:42:00,30.2,27.1,30.31,NW,315,0.0,0.0,88,0.00,,,0.00,meteohub,2013-11-09 03:42:00,
2013-11-08 22:47:00,30.4,27.5,30.31,NW,315,0.0,0.0,89,0.00,,,0.00,meteohub,2013-11-09 03:47:00,
2013-11-08 22:52:00,30.2,27.1,30.31,NW,315,0.0,0.0,88,0.00,,,0.00,meteohub,2013-11-09 03:52:00,
2013-11-08 22:57:00,30.2,27.3,30.31,NW,315,0.0,0.0,89,0.00,,,0.00,meteohub,2013-11-09 03:57:00,
2013-11-08 23:02:00,30.0,27.1,30.32,NW,315,0.0,2.0,89,0.00,,,0.00,meteohub,2013-11-09 04:02:00,
2013-11-08 23:07:00,30.0,27.1,30.32,NW,315,1.0,2.0,89,0.00,,,0.00,meteohub,2013-11-09 04:07:00,
2013-11-08 23:12:00,30.0,27.5,30.31,NW,315,0.0,2.0,90,0.00,,,0.00,meteohub,2013-11-09 04:12:00,
2013-11-08 23:17:00,30.0,27.5,30.32,NW,315,0.0,2.0,90,0.00,,,0.00,meteohub,2013-11-09 04:17:00,
2013-11-08 23:22:00,30.0,27.5,30.31,NW,315,0.0,1.0,90,0.00,,,0.00,meteohub,2013-11-09 04:22:00,
2013-11-08 23:27:00,29.8,27.3,30.31,NW,315,0.0,1.0,90,0.00,,,0.00,meteohub,2013-11-09 04:27:00,
2013-11-08 23:32:00,29.8,27.3,30.32,NW,315,0.0,1.0,90,0.00,,,0.00,meteohub,2013-11-09 04:32:00,
2013-11-08 23:37:00,29.8,27.3,30.32,NW,315,1.0,2.0,90,0.00,,,0.00,meteohub,2013-11-09 04:37:00,
2013-11-08 23:42:00,29.7,27.1,30.32,NW,315,0.0,2.0,90,0.00,,,0.00,meteohub,2013-11-09 04:42:00,
2013-11-08 23:47:00,29.5,27.0,30.32,NW,315,0.0,2.0,90,0.00,,,0.00,meteohub,2013-11-09 04:47:00,
2013-11-08 23:52:00,29.5,27.0,30.32,NW,315,0.0,1.0,90,0.00,,,0.00,meteohub,2013-11-09 04:52:00,
2013-11-08 23:57:00,29.5,27.1,30.32,NW,315,0.0,1.0,91,0.00,,,0.00,meteohub,2013-11-09 04:57:00,